createdAt,value
2023-09-07T00:02:40.192Z,100.00
2023-09-07T00:05:48.462Z,100.00
2023-09-07T00:08:54.772Z,100.00
2023-09-07T00:12:02.987Z,100.00
2023-09-07T00:15:11.827Z,100.00
2023-09-07T00:18:20.385Z,100.00
2023-09-07T00:21:27.187Z,100.00
2023-09-07T00:24:33.842Z,100.00
2023-09-07T00:27:41.847Z,100.00
2023-09-07T00:30:48.352Z,100.00
2023-09-07T00:33:55.057Z,100.00
2023-09-07T00:37:02.986Z,100.00
2023-09-07T00:40:11.104Z,100.00
2023-09-07T00:43:18.756Z,100.00
2023-09-07T00:46:25.237Z,100.00
2023-09-07T00:49:31.722Z,100.00
2023-09-07T00:52:41.451Z,100.00
2023-09-07T00:55:48.350Z,100.00
2023-09-07T00:58:57.083Z,100.00
2023-09-07T01:02:06.698Z,100.00
2023-09-07T01:05:14.130Z,100.00
2023-09-07T01:08:26.318Z,100.00
2023-09-07T01:11:39.450Z,100.00
2023-09-07T01:14:47.247Z,100.00
2023-09-07T01:17:54.643Z,100.00
2023-09-07T01:21:02.660Z,100.00
2023-09-07T01:24:12.713Z,100.00
2023-09-07T01:27:19.182Z,100.00
2023-09-07T01:30:25.849Z,100.00
2023-09-07T01:33:32.442Z,100.00
2023-09-07T01:36:39.037Z,100.00
2023-09-07T01:39:46.930Z,100.00
2023-09-07T01:42:53.078Z,100.00
2023-09-07T01:45:59.489Z,100.00
2023-09-07T01:49:05.851Z,100.00
2023-09-07T01:52:12.168Z,100.00
2023-09-07T01:55:20.176Z,100.00
2023-09-07T01:58:26.323Z,100.00
2023-09-07T02:01:37.976Z,100.00
2023-09-07T02:04:47.329Z,100.00
2023-09-07T02:07:53.792Z,100.00
2023-09-07T02:11:02.292Z,100.00
2023-09-07T02:17:19.422Z,100.00
2023-09-07T02:20:25.980Z,100.00
2023-09-07T02:23:32.881Z,100.00
2023-09-07T02:26:45.001Z,100.00
2023-09-07T02:29:51.780Z,100.00
2023-09-07T02:32:58.711Z,100.00
2023-09-07T02:36:05.638Z,100.00
2023-09-07T02:39:12.900Z,100.00
2023-09-07T02:42:20.999Z,100.00
2023-09-07T02:45:27.769Z,100.00
2023-09-07T02:48:34.617Z,100.00
2023-09-07T02:51:41.081Z,100.00
2023-09-07T02:54:48.559Z,100.00
2023-09-07T02:57:56.805Z,100.00
2023-09-07T03:01:07.736Z,100.00
2023-09-07T03:04:14.476Z,100.00
2023-09-07T03:07:21.338Z,100.00
2023-09-07T03:10:28.497Z,100.00
2023-09-07T03:13:36.717Z,100.00
2023-09-07T03:16:43.441Z,100.00
2023-09-07T03:19:50.166Z,100.00
2023-09-07T03:22:57.434Z,100.00
2023-09-07T03:26:03.952Z,100.00
2023-09-07T03:29:11.746Z,100.00
2023-09-07T03:32:18.570Z,100.00
2023-09-07T03:35:25.187Z,100.00
2023-09-07T03:38:32.156Z,100.00
2023-09-07T03:41:39.182Z,100.00
2023-09-07T03:44:47.129Z,100.00
2023-09-07T03:47:53.490Z,100.00
2023-09-07T03:50:59.673Z,100.00
2023-09-07T03:54:05.938Z,100.00
2023-09-07T03:57:12.544Z,100.00
2023-09-07T04:00:21.134Z,100.00
2023-09-07T04:03:27.557Z,100.00
2023-09-07T04:06:34.254Z,100.00
2023-09-07T04:09:42.843Z,100.00
2023-09-07T04:12:50.788Z,100.00
2023-09-07T04:15:58.341Z,100.00
2023-09-07T04:19:04.919Z,100.00
2023-09-07T04:22:11.111Z,100.00
2023-09-07T04:25:17.435Z,100.00
2023-09-07T04:28:23.936Z,100.00
2023-09-07T04:31:32.344Z,100.00
2023-09-07T04:34:38.707Z,100.00
2023-09-07T04:37:45.665Z,100.00
2023-09-07T04:40:52.179Z,100.00
2023-09-07T04:43:59.384Z,100.00
2023-09-07T04:47:07.166Z,100.00
2023-09-07T04:50:14.690Z,100.00
2023-09-07T04:53:21.513Z,100.00
2023-09-07T04:56:30.285Z,100.00
2023-09-07T04:59:47.854Z,100.00
2023-09-07T05:02:55.944Z,100.00
2023-09-07T05:06:04.202Z,100.00
2023-09-07T05:09:10.848Z,100.00
2023-09-07T05:12:19.968Z,100.00
2023-09-07T05:15:27.307Z,100.00
2023-09-07T05:18:35.665Z,100.00
2023-09-07T05:21:42.623Z,100.00
2023-09-07T05:24:49.162Z,100.00
2023-09-07T05:27:55.699Z,100.00
2023-09-07T05:31:02.260Z,100.00
2023-09-07T05:34:10.003Z,100.00
2023-09-07T05:37:16.266Z,99.17
2023-09-07T05:40:22.827Z,97.37
2023-09-07T05:43:29.186Z,96.03
2023-09-07T05:46:35.596Z,94.59
2023-09-07T05:49:43.350Z,95.23
2023-09-07T05:52:49.483Z,92.56
2023-09-07T05:55:55.881Z,92.72
2023-09-07T05:59:02.352Z,93.88
2023-09-07T06:02:09.521Z,98.89
2023-09-07T06:05:17.843Z,98.87
2023-09-07T06:08:24.015Z,99.97
2023-09-07T06:11:31.557Z,97.31
2023-09-07T06:14:37.994Z,95.58
2023-09-07T06:17:44.665Z,90.78
2023-09-07T06:20:52.415Z,90.04
2023-09-07T06:23:58.791Z,88.50
2023-09-07T06:27:06.150Z,88.19
2023-09-07T06:30:13.207Z,87.52
2023-09-07T06:33:19.736Z,86.52
2023-09-07T06:36:41.427Z,83.85
2023-09-07T06:39:52.746Z,86.80
2023-09-07T06:42:59.653Z,84.76
2023-09-07T06:46:09.835Z,79.37
2023-09-07T06:49:16.459Z,77.58
2023-09-07T06:52:24.598Z,72.33
2023-09-07T06:55:31.382Z,66.21
2023-09-07T06:58:37.921Z,63.76
2023-09-07T07:01:44.645Z,62.38
2023-09-07T07:04:51.524Z,62.35
2023-09-07T07:07:59.575Z,60.14
2023-09-07T07:11:06.211Z,60.58
2023-09-07T07:14:13.137Z,60.84
2023-09-07T07:17:19.936Z,60.78
2023-09-07T07:20:26.384Z,60.44
2023-09-07T07:23:34.325Z,59.07
2023-09-07T07:26:41.009Z,57.80
2023-09-07T07:29:47.488Z,57.04
2023-09-07T07:32:54.052Z,59.00
2023-09-07T07:36:00.345Z,60.80
2023-09-07T07:39:09.420Z,59.42
2023-09-07T07:42:16.196Z,60.26
2023-09-07T07:45:23.232Z,61.13
2023-09-07T07:48:30.775Z,59.69
2023-09-07T07:51:37.235Z,62.12
2023-09-07T07:54:44.956Z,61.09
2023-09-07T07:57:51.308Z,62.14
2023-09-07T08:00:59.179Z,62.36
2023-09-07T08:04:05.354Z,58.95
2023-09-07T08:07:11.650Z,60.43
2023-09-07T08:10:19.329Z,58.96
2023-09-07T08:13:25.702Z,57.41
2023-09-07T08:16:32.102Z,57.65
2023-09-07T08:19:39.385Z,57.23
2023-09-07T08:22:46.921Z,59.39
2023-09-07T08:25:55.461Z,56.54
2023-09-07T08:29:06.597Z,53.85
2023-09-07T08:32:15.148Z,55.11
2023-09-07T08:35:21.474Z,54.68
2023-09-07T08:38:29.697Z,53.94
2023-09-07T08:41:58.190Z,54.87
2023-09-07T08:45:10.846Z,55.79
2023-09-07T08:48:21.944Z,54.80
2023-09-07T08:51:29.370Z,56.96
2023-09-07T08:54:38.342Z,56.71
2023-09-07T08:57:45.899Z,55.66
2023-09-07T09:00:54.039Z,59.93
2023-09-07T09:04:01.393Z,62.64
2023-09-07T09:07:07.586Z,62.01
2023-09-07T09:10:13.967Z,65.87
2023-09-07T09:13:31.815Z,62.87
2023-09-07T09:16:38.563Z,65.12
2023-09-07T09:19:44.946Z,68.10
2023-09-07T09:22:54.306Z,66.49
2023-09-07T09:26:02.172Z,66.04
2023-09-07T09:29:12.477Z,68.38
2023-09-07T09:32:18.631Z,73.88
2023-09-07T09:35:25.898Z,71.74
2023-09-07T09:38:33.762Z,69.35
2023-09-07T09:41:41.178Z,69.60
2023-09-07T09:44:53.045Z,69.28
2023-09-07T09:48:01.616Z,65.81
2023-09-07T09:51:09.709Z,66.34
2023-09-07T09:54:16.185Z,65.60
2023-09-07T09:57:23.260Z,64.44
2023-09-07T10:00:33.142Z,63.54
2023-09-07T10:03:47.281Z,63.79
2023-09-07T10:06:57.958Z,64.10
2023-09-07T10:10:04.998Z,66.17
2023-09-07T10:13:11.586Z,65.05
2023-09-07T10:16:59.413Z,67.30
2023-09-07T10:20:07.728Z,65.44
2023-09-07T10:23:14.361Z,67.59
2023-09-07T10:26:23.054Z,69.65
2023-09-07T10:29:30.099Z,71.29
2023-09-07T10:32:42.883Z,70.54
2023-09-07T10:35:49.183Z,71.87
2023-09-07T10:38:57.584Z,69.65
2023-09-07T10:42:04.354Z,71.53
2023-09-07T10:45:14.192Z,69.23
2023-09-07T10:48:22.366Z,75.03
2023-09-07T10:51:28.655Z,72.56
2023-09-07T10:54:35.399Z,73.32
2023-09-07T10:57:46.082Z,72.91
2023-09-07T11:00:55.118Z,71.55
2023-09-07T11:04:03.656Z,71.27
2023-09-07T11:07:10.170Z,72.15
2023-09-07T11:10:16.715Z,70.68
2023-09-07T11:13:24.217Z,71.38
2023-09-07T11:16:31.734Z,69.06
2023-09-07T11:19:39.369Z,68.14
2023-09-07T11:23:02.847Z,69.36
2023-09-07T11:26:11.351Z,67.73
2023-09-07T11:29:17.992Z,68.68
2023-09-07T11:32:24.248Z,68.07
2023-09-07T11:35:31.964Z,69.19
2023-09-07T11:38:39.350Z,70.28
2023-09-07T11:41:46.532Z,71.27
2023-09-07T11:44:52.888Z,72.61
2023-09-07T11:47:59.255Z,71.26
2023-09-07T11:51:08.411Z,73.85
2023-09-07T11:54:14.881Z,71.08
2023-09-07T11:57:21.339Z,71.68
2023-09-07T12:00:28.112Z,72.83
2023-09-07T12:03:35.825Z,73.32
2023-09-07T12:06:44.248Z,76.36
2023-09-07T12:09:51.755Z,71.72
2023-09-07T12:12:58.236Z,74.88
2023-09-07T12:16:04.810Z,72.50
2023-09-07T12:19:11.312Z,75.43
2023-09-07T12:22:19.594Z,73.70
2023-09-07T12:25:26.505Z,74.78
2023-09-07T12:28:33.200Z,76.12
2023-09-07T12:31:39.367Z,78.11
2023-09-07T12:34:45.672Z,75.54
2023-09-07T12:38:31.835Z,76.95
2023-09-07T12:41:38.024Z,78.41
2023-09-07T12:44:44.352Z,74.81
2023-09-07T12:47:50.878Z,76.06
2023-09-07T12:50:57.721Z,75.48
2023-09-07T12:54:05.674Z,78.53
2023-09-07T12:57:12.196Z,78.76
2023-09-07T13:00:19.844Z,77.26
2023-09-07T13:03:26.488Z,77.64
2023-09-07T13:06:33.076Z,78.97
2023-09-07T13:09:41.312Z,80.44
2023-09-07T13:12:47.626Z,76.32
2023-09-07T13:15:54.382Z,75.66
2023-09-07T13:19:01.336Z,74.97
2023-09-07T13:22:08.675Z,76.11
2023-09-07T13:25:16.680Z,74.51
2023-09-07T13:28:23.476Z,75.67
2023-09-07T13:31:30.208Z,77.41
2023-09-07T13:34:36.741Z,76.86
2023-09-07T13:37:43.227Z,77.25
2023-09-07T13:40:51.094Z,76.43
2023-09-07T13:43:58.002Z,72.30
2023-09-07T13:47:04.251Z,70.42
2023-09-07T13:50:10.673Z,70.47
2023-09-07T13:53:17.069Z,70.93
2023-09-07T13:56:24.784Z,72.50
2023-09-07T13:59:34.068Z,70.80
2023-09-07T14:02:40.259Z,70.35
2023-09-07T14:05:46.648Z,73.45
2023-09-07T14:08:53.904Z,74.91
2023-09-07T14:12:01.455Z,72.12
2023-09-07T14:15:08.540Z,72.89
2023-09-07T14:18:14.826Z,72.87
2023-09-07T14:21:21.276Z,73.56
2023-09-07T14:24:27.679Z,73.66
2023-09-07T14:27:35.536Z,70.71
2023-09-07T14:30:42.225Z,70.78
2023-09-07T14:33:49.765Z,75.15
2023-09-07T14:36:56.304Z,70.88
2023-09-07T14:40:02.657Z,74.93
2023-09-07T14:43:12.207Z,77.58
2023-09-07T14:46:18.753Z,78.94
2023-09-07T14:49:25.326Z,85.52
2023-09-07T14:52:32.430Z,86.08
2023-09-07T14:55:39.201Z,86.33
2023-09-07T14:58:47.080Z,88.14
2023-09-07T15:02:02.500Z,94.06
2023-09-07T15:05:11.597Z,89.96
2023-09-07T15:08:18.210Z,92.68
2023-09-07T15:11:25.286Z,95.27
2023-09-07T15:14:33.073Z,93.59
2023-09-07T15:17:41.328Z,97.24
2023-09-07T15:20:47.749Z,93.52
2023-09-07T15:23:54.066Z,92.94
2023-09-07T15:27:00.892Z,94.39
2023-09-07T15:30:09.775Z,99.86
2023-09-07T15:33:16.515Z,100.00
2023-09-07T15:36:22.819Z,99.91
2023-09-07T15:39:30.656Z,100.00
2023-09-07T15:42:37.174Z,100.00
2023-09-07T15:45:46.653Z,100.00
2023-09-07T15:48:54.892Z,100.00
2023-09-07T15:52:01.494Z,95.91
2023-09-07T15:55:08.587Z,94.88
2023-09-07T15:58:15.984Z,95.42
2023-09-07T16:01:23.918Z,97.15
2023-09-07T16:04:30.541Z,95.94
2023-09-07T16:07:36.645Z,98.88
2023-09-07T16:10:43.098Z,100.00
2023-09-07T16:13:49.576Z,100.00
2023-09-07T16:16:57.765Z,100.00
2023-09-07T16:20:04.160Z,100.00
2023-09-07T16:23:11.306Z,100.00
2023-09-07T16:26:18.225Z,100.00
2023-09-07T16:29:24.758Z,100.00
2023-09-07T16:32:32.911Z,100.00
2023-09-07T16:35:39.964Z,100.00
2023-09-07T16:38:46.476Z,100.00
2023-09-07T16:41:53.161Z,100.00
2023-09-07T16:44:59.936Z,100.00
2023-09-07T16:48:08.329Z,100.00
2023-09-07T16:51:14.601Z,100.00
2023-09-07T16:54:21.443Z,100.00
2023-09-07T16:57:29.461Z,100.00
2023-09-07T17:00:36.449Z,100.00
2023-09-07T17:03:44.495Z,100.00
2023-09-07T17:07:02.008Z,100.00
2023-09-07T17:10:14.242Z,100.00
2023-09-07T17:13:20.498Z,100.00
2023-09-07T17:16:27.447Z,100.00
2023-09-07T17:19:35.572Z,100.00
2023-09-07T17:22:46.886Z,100.00
2023-09-07T17:25:53.731Z,100.00
2023-09-07T17:29:00.138Z,100.00
2023-09-07T17:32:07.341Z,100.00
2023-09-07T17:35:15.411Z,100.00
2023-09-07T17:38:22.593Z,100.00
2023-09-07T17:41:30.548Z,100.00
2023-09-07T17:44:38.018Z,100.00
2023-09-07T17:47:45.738Z,100.00
2023-09-07T17:50:53.839Z,100.00
2023-09-07T17:54:00.357Z,100.00
2023-09-07T17:57:06.922Z,100.00
2023-09-07T18:00:14.602Z,100.00
2023-09-07T18:03:21.439Z,100.00
2023-09-07T18:06:29.475Z,100.00
2023-09-07T18:09:36.254Z,100.00
2023-09-07T18:12:42.587Z,100.00
2023-09-07T18:15:49.038Z,100.00
2023-09-07T18:18:55.480Z,100.00
2023-09-07T18:22:03.801Z,100.00
2023-09-07T18:25:10.432Z,100.00
2023-09-07T18:28:16.734Z,100.00
2023-09-07T18:31:23.129Z,100.00
2023-09-07T18:34:30.042Z,100.00
2023-09-07T18:37:39.616Z,100.00
2023-09-07T18:40:47.807Z,100.00
2023-09-07T18:43:54.487Z,100.00
2023-09-07T18:47:01.124Z,100.00
2023-09-07T18:50:11.702Z,100.00
2023-09-07T18:53:21.115Z,100.00
2023-09-07T18:56:27.752Z,100.00
2023-09-07T18:59:35.780Z,100.00
2023-09-07T19:02:42.625Z,100.00
2023-09-07T19:05:49.502Z,100.00
2023-09-07T19:08:57.266Z,100.00
2023-09-07T19:12:04.531Z,100.00
2023-09-07T19:15:11.702Z,100.00
2023-09-07T19:18:18.249Z,100.00
2023-09-07T19:21:27.706Z,100.00
2023-09-07T19:24:35.501Z,100.00
2023-09-07T19:27:41.776Z,100.00
2023-09-07T19:30:48.400Z,100.00
2023-09-07T19:33:56.133Z,100.00
2023-09-07T19:37:03.891Z,100.00
2023-09-07T19:40:13.626Z,100.00
2023-09-07T19:43:20.173Z,100.00
2023-09-07T19:46:27.186Z,100.00
2023-09-07T19:49:33.711Z,100.00
2023-09-07T19:52:39.962Z,100.00
2023-09-07T19:55:48.053Z,100.00
2023-09-07T19:58:54.980Z,100.00
2023-09-07T20:02:04.024Z,100.00
2023-09-07T20:05:11.865Z,100.00
